Auburn, New Jersey
Current Conditions -  °F | °C
As of 8:54 PM on Monday 24 Nov 2014 (Local Time) from KPHL Reporting Station
Clear Clear  
Wind Chill: 18°   Ceiling: Unl
Heat Index: 18°   Visibility: 10mi
Dew Point: 13°   Wind: 16mph
Humidity: 73%   Direction: 200°SSW
Pressure: 29.73"   Gusts: NA
Location:  39.757°N, 75.3338°W
Report Text: KPHL 250154Z 20014KT 10SM CLR 18/13 A2973 RMK AO2 SLP067 T01830133
Loading
Personal Weather Stations






























Interactive Weather Map New forecast layout! Learn more

10-Day Weather Forecast

Advertisements
Track Severe Weather on mobile